Terminal Aerodrome Forecast
Issued by NWS Cleveland, OH

Home | Current Version | Previous Version | Graphics & Text | Print | Product List | Glossary On
Versions: 1 2 3 4 5 6 7 8 9 10 11 12 13 14 15 16 17
588
FTUS41 KCLE 211505 AAA
TAFMFD
TAF AMD
KMFD 211505Z 2115/2212 19012KT 6SM -SHRA BR SCT007 OVC012
      TEMPO 2115/2117 5SM -SHRA BR BKN007
     FM211700 19014G20KT P6SM VCSH OVC015
     FM212200 21014G20KT P6SM VCTS SCT015 OVC025CB
     FM220000 25014KT P6SM BKN035
     FM220800 24006KT 6SM BR BKN025=

USA.gov is the U.S. government's official web portal to all federal, state and local government web resources and services.